Coe Leni — A8VR8 — position and weather

sailwx.info

Track history (hours):
 
Tides and Currents Weather Stations Pressure Air Temp Water Temp Dewpoint Dewpoint Depression Visibility Wind Speed Wind Dir Waves Ship Positions

Coe Leni

Last reported at 2016-Dec-25 02:28 UTC. Time now 2017-Jan-20 20:14 UTC.
Position N 46°23' W 004°58'.
Warning: this ship's position is 26 days out of date.

Length 138 m; draft 6.3 m.

Type: Cargo ship. MMSI: 636092036.

Date/timePositionNaut miles runAvg speedWind from/ knotsBaromVisibWave heightAir tempDewpointWater temp
2016-Dec-25 02:28N 46°23' W 004°58'1313.9
2016-Dec-25 01:34N 46°35' W 005°03'1513.8
2016-Dec-25 00:30N 46°49' W 005°08'1414.0
2016-Dec-24 23:30N 47°02' W 005°14'1313.6
2016-Dec-24 22:33N 47°15' W 005°20'1413.6
2016-Dec-24 21:33N 47°28' W 005°25'1413.4
2016-Dec-24 20:31N 47°41' W 005°31'17510.3
2016-Dec-24 03:30N 49°60' W 002°49'3411.4
2016-Dec-24 00:33N 50°10' W 001°59'1312.6
2016-Dec-23 23:33N 50°13' W 001°40'1413.0
2016-Dec-23 22:31N 50°17' W 001°20'3711.9
2016-Dec-23 19:24N 50°28' W 000°24'810.1
2016-Dec-23 18:33N 50°30' W 000°12'10 9.7
2016-Dec-23 17:32N 50°33' E 000°04'10 9.9
2016-Dec-23 16:31N 50°35' E 000°19'3511.5
2016-Dec-23 13:31N 50°53' E 001°06'1213.0
2016-Dec-23 12:33N 51°01' E 001°21'1312.7
2016-Dec-23 11:33N 51°09' E 001°37'1312.6
2016-Dec-23 10:34N 51°18' E 001°51'1110.7
2016-Dec-23 09:33N 51°24' E 002°05'1312.8
2016-Dec-23 08:34N 51°22' E 002°25'1312.9
2016-Dec-23 07:34N 51°22' E 002°46'1212.3
2016-Dec-23 06:34N 51°24' E 003°05'1413.6
2016-Dec-23 05:34N 51°25' E 003°27'10 9.9
2016-Dec-23 04:33N 51°24' E 003°43'9 9.3
2016-Dec-23 03:33N 51°25' E 003°58'1010.0
2016-Dec-23 02:33N 51°22' E 004°13'7 7.2
2016-Dec-23 01:33N 51°17' E 004°20'0 0.4
2016-Dec-23 00:31N 51°17' E 004°21'1 0.8
2016-Dec-22 23:32N 51°16' E 004°22'0 0.0
2016-Dec-22 22:32N 51°16' E 004°22'0 0.0
2016-Dec-22 21:32N 51°16' E 004°22'0 0.0
2016-Dec-22 20:29N 51°16' E 004°22'0 0.0
2016-Dec-22 19:32N 51°16' E 004°22'0 0.0
2016-Dec-22 18:32N 51°16' E 004°22'0 0.0
2016-Dec-22 17:29N 51°16' E 004°22'0 0.0
2016-Dec-22 16:32N 51°16' E 004°22'0 0.0
2016-Dec-22 15:32N 51°16' E 004°22'0 0.0
2016-Dec-22 14:32N 51°16' E 004°22'0 0.0
2016-Dec-22 13:29N 51°16' E 004°22'0 0.0
2016-Dec-22 12:32N 51°16' E 004°22'0 0.0
2016-Dec-22 11:32N 51°16' E 004°22'0 0.0
2016-Dec-22 10:32N 51°16' E 004°22'0 0.0
2016-Dec-22 09:32N 51°16' E 004°22'0 0.0
2016-Dec-22 08:32N 51°16' E 004°22'0 0.0
2016-Dec-22 07:32N 51°16' E 004°22'0 0.0
2016-Dec-22 06:32N 51°16' E 004°22'0 0.0
2016-Dec-22 05:29N 51°16' E 004°22'0 0.0
2016-Dec-22 04:32N 51°16' E 004°22'0 0.0
2016-Dec-22 03:32N 51°16' E 004°22'0 0.0
2016-Dec-22 02:32N 51°16' E 004°22'0 0.0
2016-Dec-22 01:29N 51°16' E 004°22'0 0.0
2016-Dec-22 00:32N 51°16' E 004°22'0 0.0
2016-Dec-21 23:32N 51°16' E 004°22'0 0.0
2016-Dec-21 22:32N 51°16' E 004°22'0 0.0
2016-Dec-21 21:32N 51°16' E 004°22'0 0.0
2016-Dec-21 20:32N 51°16' E 004°22'0 0.0
2016-Dec-21 19:32N 51°16' E 004°22'0 0.0
2016-Dec-21 18:32N 51°16' E 004°22'0 0.0
2016-Dec-21 17:32N 51°16' E 004°22'0 0.0
2016-Dec-21 16:32N 51°16' E 004°22'0 0.0
2016-Dec-21 15:32N 51°16' E 004°22'0 0.0
2016-Dec-21 14:29N 51°16' E 004°22'0 0.0
2016-Dec-21 13:32N 51°16' E 004°22'0 0.0
2016-Dec-21 12:32N 51°16' E 004°22'0 0.0
2016-Dec-21 11:32N 51°16' E 004°22'0 0.0
2016-Dec-21 10:32N 51°16' E 004°22'0 0.0
2016-Dec-21 09:29N 51°16' E 004°22'0 0.0
2016-Dec-21 08:26N 51°16' E 004°22'0 0.0
2016-Dec-21 07:32N 51°16' E 004°22'0 0.0
2016-Dec-21 06:29N 51°16' E 004°22'0 0.0
2016-Dec-21 05:32N 51°16' E 004°22'0 0.0
2016-Dec-21 04:32N 51°16' E 004°22'0 0.0
2016-Dec-21 03:32N 51°16' E 004°22'0 0.0
2016-Dec-21 02:32N 51°16' E 004°22'0 0.0
2016-Dec-21 01:32N 51°16' E 004°22'0 0.0
2016-Dec-21 00:32N 51°16' E 004°22'0 0.0
2016-Dec-20 23:32N 51°16' E 004°22'0 0.0
2016-Dec-20 22:32N 51°16' E 004°22'0 0.0
2016-Dec-20 21:26N 51°16' E 004°22'0 0.0
2016-Dec-20 20:32N 51°16' E 004°22'0 0.0
2016-Dec-20 19:17N 51°16' E 004°22'0 0.0
2016-Dec-20 18:32N 51°16' E 004°22'0 0.0
2016-Dec-20 17:32N 51°16' E 004°22'0 0.0
2016-Dec-20 16:23N 51°16' E 004°22'0 0.0
2016-Dec-20 15:32N 51°16' E 004°22'0 0.0
2016-Dec-20 14:32N 51°16' E 004°22'0 0.0
2016-Dec-20 13:32N 51°16' E 004°22'0 0.0
2016-Dec-20 12:32N 51°16' E 004°22'0 0.0
2016-Dec-20 11:32N 51°16' E 004°22'0 0.0
2016-Dec-20 10:32N 51°16' E 004°22'0 0.0
2016-Dec-20 09:32N 51°16' E 004°22'0 0.0
2016-Dec-20 08:33N 51°16' E 004°22'5 5.2
2016-Dec-20 07:33N 51°21' E 004°18'1 0.6
2016-Dec-20 06:33N 51°21' E 004°17'0 0.0
2016-Dec-20 05:33N 51°21' E 004°17'0 0.1
2016-Dec-20 04:33N 51°21' E 004°17'8 7.4
2016-Dec-20 03:32N 51°22' E 004°05'12 9.8
2016-Dec-20 02:17N 51°22' E 003°45'810.7
2016-Dec-20 01:32N 51°25' E 003°34'1212.1
2016-Dec-20 00:33N 51°24' E 003°15'1212.2
2016-Dec-19 23:33N 51°25' E 002°55'1110.9
2016-Dec-19 22:33N 51°22' E 002°38'10 9.7
2016-Dec-19 21:33N 51°20' E 002°23'1211.6
2016-Dec-19 20:33N 51°14' E 002°07'1313.3
2016-Dec-19 19:33N 51°08' E 001°49'1414.1
2016-Dec-19 18:33N 50°57' E 001°34'6013.7
2016-Dec-19 14:12N 50°22' E 000°18'1015.4
2016-Dec-19 13:33N 50°19' E 000°03'11714.7
2016-Dec-19 05:33N 49°48' W 002°53'1312.2
2016-Dec-19 04:31N 49°42' W 003°10'1412.4
2016-Dec-19 03:25N 49°35' W 003°28'1112.6
2016-Dec-19 02:33N 49°29' W 003°42'1612.7
2016-Dec-19 01:18N 49°21' W 004°03'1312.8
2016-Dec-19 00:17N 49°15' W 004°21'5113.2
2016-Dec-18 20:27N 48°50' W 005°28'  
2016-Dec-16 11:34N 39°23' W 009°55'7 6.6
2016-Dec-16 10:34N 39°17' W 009°54'6 6.2
2016-Dec-16 09:33N 39°10' W 009°53'6 6.0
2016-Dec-16 08:33N 39°05' W 009°53'5 5.0
2016-Dec-16 07:33N 38°60' W 009°53'7 6.8
2016-Dec-16 06:33N 38°53' W 009°53'6 5.5
2016-Dec-16 05:33N 38°47' W 009°52'5 4.8
2016-Dec-16 04:33N 38°42' W 009°51'5 5.5
2016-Dec-16 03:34N 38°37' W 009°50'7 6.8
2016-Dec-16 02:34N 38°31' W 009°47'8 7.7
2016-Dec-16 01:34N 38°23' W 009°45'8 7.8
2016-Dec-16 00:33N 38°15' W 009°43'9 8.0
2016-Dec-15 23:30N 38°07' W 009°40'  
Track history (hours):
 
Tides and Currents Weather Stations Pressure Air Temp Water Temp Dewpoint Dewpoint Depression Visibility Wind Speed Wind Dir Waves Ship Positions

Coe Leni

Last reported at 2016-Dec-25 02:28 UTC. Time now 2017-Jan-20 20:14 UTC.
Position N 46°23' W 004°58'.
Warning: this ship's position is 26 days out of date.

Length 138 m; draft 6.3 m.

Type: Cargo ship. MMSI: 636092036.

Date/timePositionNaut miles runAvg speedWind from/ knotsBaromVisibWave heightAir tempDewpointWater temp
2016-Dec-25 02:28N 46°23' W 004°58'1313.9
2016-Dec-25 01:34N 46°35' W 005°03'1513.8
2016-Dec-25 00:30N 46°49' W 005°08'1414.0
2016-Dec-24 23:30N 47°02' W 005°14'1313.6
2016-Dec-24 22:33N 47°15' W 005°20'1413.6
2016-Dec-24 21:33N 47°28' W 005°25'1413.4
2016-Dec-24 20:31N 47°41' W 005°31'17510.3
2016-Dec-24 03:30N 49°60' W 002°49'3411.4
2016-Dec-24 00:33N 50°10' W 001°59'1312.6
2016-Dec-23 23:33N 50°13' W 001°40'1413.0
2016-Dec-23 22:31N 50°17' W 001°20'3711.9
2016-Dec-23 19:24N 50°28' W 000°24'810.1
2016-Dec-23 18:33N 50°30' W 000°12'10 9.7
2016-Dec-23 17:32N 50°33' E 000°04'10 9.9
2016-Dec-23 16:31N 50°35' E 000°19'3511.5
2016-Dec-23 13:31N 50°53' E 001°06'1213.0
2016-Dec-23 12:33N 51°01' E 001°21'1312.7
2016-Dec-23 11:33N 51°09' E 001°37'1312.6
2016-Dec-23 10:34N 51°18' E 001°51'1110.7
2016-Dec-23 09:33N 51°24' E 002°05'1312.8
2016-Dec-23 08:34N 51°22' E 002°25'1312.9
2016-Dec-23 07:34N 51°22' E 002°46'1212.3
2016-Dec-23 06:34N 51°24' E 003°05'1413.6
2016-Dec-23 05:34N 51°25' E 003°27'10 9.9
2016-Dec-23 04:33N 51°24' E 003°43'9 9.3
2016-Dec-23 03:33N 51°25' E 003°58'1010.0
2016-Dec-23 02:33N 51°22' E 004°13'7 7.2
2016-Dec-23 01:33N 51°17' E 004°20'0 0.4
2016-Dec-23 00:31N 51°17' E 004°21'1 0.8
2016-Dec-22 23:32N 51°16' E 004°22'0 0.0
2016-Dec-22 22:32N 51°16' E 004°22'0 0.0
2016-Dec-22 21:32N 51°16' E 004°22'0 0.0
2016-Dec-22 20:29N 51°16' E 004°22'0 0.0
2016-Dec-22 19:32N 51°16' E 004°22'0 0.0
2016-Dec-22 18:32N 51°16' E 004°22'0 0.0
2016-Dec-22 17:29N 51°16' E 004°22'0 0.0
2016-Dec-22 16:32N 51°16' E 004°22'0 0.0
2016-Dec-22 15:32N 51°16' E 004°22'0 0.0
2016-Dec-22 14:32N 51°16' E 004°22'0 0.0
2016-Dec-22 13:29N 51°16' E 004°22'0 0.0
2016-Dec-22 12:32N 51°16' E 004°22'0 0.0
2016-Dec-22 11:32N 51°16' E 004°22'0 0.0
2016-Dec-22 10:32N 51°16' E 004°22'0 0.0
2016-Dec-22 09:32N 51°16' E 004°22'0 0.0
2016-Dec-22 08:32N 51°16' E 004°22'0 0.0
2016-Dec-22 07:32N 51°16' E 004°22'0 0.0
2016-Dec-22 06:32N 51°16' E 004°22'0 0.0
2016-Dec-22 05:29N 51°16' E 004°22'0 0.0
2016-Dec-22 04:32N 51°16' E 004°22'0 0.0
2016-Dec-22 03:32N 51°16' E 004°22'0 0.0
2016-Dec-22 02:32N 51°16' E 004°22'0 0.0
2016-Dec-22 01:29N 51°16' E 004°22'0 0.0
2016-Dec-22 00:32N 51°16' E 004°22'0 0.0
2016-Dec-21 23:32N 51°16' E 004°22'0 0.0
2016-Dec-21 22:32N 51°16' E 004°22'0 0.0
2016-Dec-21 21:32N 51°16' E 004°22'0 0.0
2016-Dec-21 20:32N 51°16' E 004°22'0 0.0
2016-Dec-21 19:32N 51°16' E 004°22'0 0.0
2016-Dec-21 18:32N 51°16' E 004°22'0 0.0
2016-Dec-21 17:32N 51°16' E 004°22'0 0.0
2016-Dec-21 16:32N 51°16' E 004°22'0 0.0
2016-Dec-21 15:32N 51°16' E 004°22'0 0.0
2016-Dec-21 14:29N 51°16' E 004°22'0 0.0
2016-Dec-21 13:32N 51°16' E 004°22'0 0.0
2016-Dec-21 12:32N 51°16' E 004°22'0 0.0
2016-Dec-21 11:32N 51°16' E 004°22'0 0.0
2016-Dec-21 10:32N 51°16' E 004°22'0 0.0
2016-Dec-21 09:29N 51°16' E 004°22'0 0.0
2016-Dec-21 08:26N 51°16' E 004°22'0 0.0
2016-Dec-21 07:32N 51°16' E 004°22'0 0.0
2016-Dec-21 06:29N 51°16' E 004°22'0 0.0
2016-Dec-21 05:32N 51°16' E 004°22'0 0.0
2016-Dec-21 04:32N 51°16' E 004°22'0 0.0
2016-Dec-21 03:32N 51°16' E 004°22'0 0.0
2016-Dec-21 02:32N 51°16' E 004°22'0 0.0
2016-Dec-21 01:32N 51°16' E 004°22'0 0.0
2016-Dec-21 00:32N 51°16' E 004°22'0 0.0
2016-Dec-20 23:32N 51°16' E 004°22'0 0.0
2016-Dec-20 22:32N 51°16' E 004°22'0 0.0
2016-Dec-20 21:26N 51°16' E 004°22'0 0.0
2016-Dec-20 20:32N 51°16' E 004°22'0 0.0
2016-Dec-20 19:17N 51°16' E 004°22'0 0.0
2016-Dec-20 18:32N 51°16' E 004°22'0 0.0
2016-Dec-20 17:32N 51°16' E 004°22'0 0.0
2016-Dec-20 16:23N 51°16' E 004°22'0 0.0
2016-Dec-20 15:32N 51°16' E 004°22'0 0.0
2016-Dec-20 14:32N 51°16' E 004°22'0 0.0
2016-Dec-20 13:32N 51°16' E 004°22'0 0.0
2016-Dec-20 12:32N 51°16' E 004°22'0 0.0
2016-Dec-20 11:32N 51°16' E 004°22'0 0.0
2016-Dec-20 10:32N 51°16' E 004°22'0 0.0
2016-Dec-20 09:32N 51°16' E 004°22'0 0.0
2016-Dec-20 08:33N 51°16' E 004°22'5 5.2
2016-Dec-20 07:33N 51°21' E 004°18'1 0.6
2016-Dec-20 06:33N 51°21' E 004°17'0 0.0
2016-Dec-20 05:33N 51°21' E 004°17'0 0.1
2016-Dec-20 04:33N 51°21' E 004°17'8 7.4
2016-Dec-20 03:32N 51°22' E 004°05'12 9.8
2016-Dec-20 02:17N 51°22' E 003°45'810.7
2016-Dec-20 01:32N 51°25' E 003°34'1212.1
2016-Dec-20 00:33N 51°24' E 003°15'1212.2
2016-Dec-19 23:33N 51°25' E 002°55'1110.9
2016-Dec-19 22:33N 51°22' E 002°38'10 9.7
2016-Dec-19 21:33N 51°20' E 002°23'1211.6
2016-Dec-19 20:33N 51°14' E 002°07'1313.3
2016-Dec-19 19:33N 51°08' E 001°49'1414.1
2016-Dec-19 18:33N 50°57' E 001°34'6013.7
2016-Dec-19 14:12N 50°22' E 000°18'1015.4
2016-Dec-19 13:33N 50°19' E 000°03'11714.7
2016-Dec-19 05:33N 49°48' W 002°53'1312.2
2016-Dec-19 04:31N 49°42' W 003°10'1412.4
2016-Dec-19 03:25N 49°35' W 003°28'1112.6
2016-Dec-19 02:33N 49°29' W 003°42'1612.7
2016-Dec-19 01:18N 49°21' W 004°03'1312.8
2016-Dec-19 00:17N 49°15' W 004°21'5113.2
2016-Dec-18 20:27N 48°50' W 005°28'  
2016-Dec-16 11:34N 39°23' W 009°55'7 6.6
2016-Dec-16 10:34N 39°17' W 009°54'6 6.2
2016-Dec-16 09:33N 39°10' W 009°53'6 6.0
2016-Dec-16 08:33N 39°05' W 009°53'5 5.0
2016-Dec-16 07:33N 38°60' W 009°53'7 6.8
2016-Dec-16 06:33N 38°53' W 009°53'6 5.5
2016-Dec-16 05:33N 38°47' W 009°52'5 4.8
2016-Dec-16 04:33N 38°42' W 009°51'5 5.5
2016-Dec-16 03:34N 38°37' W 009°50'7 6.8
2016-Dec-16 02:34N 38°31' W 009°47'8 7.7
2016-Dec-16 01:34N 38°23' W 009°45'8 7.8
2016-Dec-16 00:33N 38°15' W 009°43'9 8.0
2016-Dec-15 23:30N 38°07' W 009°40'  

Dump ship's entire track history